sensor_id;sensor_type;location;lat;lon;timestamp;temperature;humidity
75010;DHT22;63564;46.840;18.336;2024-01-11T00:00:30;-4.70;94.72
75010;DHT22;63564;46.840;18.336;2024-01-11T00:03:30;-4.57;93.61
75010;DHT22;63564;46.840;18.336;2024-01-11T00:06:31;-4.57;93.64
75010;DHT22;63564;46.840;18.336;2024-01-11T00:09:31;-4.46;93.41
75010;DHT22;63564;46.840;18.336;2024-01-11T00:12:31;-4.43;92.80
75010;DHT22;63564;46.840;18.336;2024-01-11T00:15:32;-4.49;92.94
75010;DHT22;63564;46.840;18.336;2024-01-11T00:18:32;-4.42;92.77
75010;DHT22;63564;46.840;18.336;2024-01-11T00:21:32;-4.37;92.50
75010;DHT22;63564;46.840;18.336;2024-01-11T00:24:33;-4.36;92.25
75010;DHT22;63564;46.840;18.336;2024-01-11T00:27:33;-4.37;92.27
75010;DHT22;63564;46.840;18.336;2024-01-11T00:30:33;-4.37;91.96
75010;DHT22;63564;46.840;18.336;2024-01-11T00:33:34;-4.37;92.23
75010;DHT22;63564;46.840;18.336;2024-01-11T00:36:34;-4.46;92.19
75010;DHT22;63564;46.840;18.336;2024-01-11T00:39:36;-4.52;92.20
75010;DHT22;63564;46.840;18.336;2024-01-11T00:42:37;-4.52;91.40
75010;DHT22;63564;46.840;18.336;2024-01-11T00:45:37;-4.59;91.80
75010;DHT22;63564;46.840;18.336;2024-01-11T00:48:38;-4.67;91.56
75010;DHT22;63564;46.840;18.336;2024-01-11T00:51:38;-4.74;92.30
75010;DHT22;63564;46.840;18.336;2024-01-11T00:54:39;-4.70;92.83
75010;DHT22;63564;46.840;18.336;2024-01-11T00:57:40;-4.66;91.80
75010;DHT22;63564;46.840;18.336;2024-01-11T01:00:41;-4.73;91.87
75010;DHT22;63564;46.840;18.336;2024-01-11T01:03:41;-4.76;92.74
75010;DHT22;63564;46.840;18.336;2024-01-11T01:06:42;-4.87;92.97
75010;DHT22;63564;46.840;18.336;2024-01-11T01:09:43;-4.77;93.25
75010;DHT22;63564;46.840;18.336;2024-01-11T01:12:43;-4.76;91.95
75010;DHT22;63564;46.840;18.336;2024-01-11T01:15:43;-4.78;92.60
75010;DHT22;63564;46.840;18.336;2024-01-11T01:18:44;-4.71;92.27
75010;DHT22;63564;46.840;18.336;2024-01-11T01:21:44;-4.90;91.68
75010;DHT22;63564;46.840;18.336;2024-01-11T01:24:44;-4.90;92.88
75010;DHT22;63564;46.840;18.336;2024-01-11T01:27:45;-4.85;92.27
75010;DHT22;63564;46.840;18.336;2024-01-11T01:30:45;-4.90;92.12
75010;DHT22;63564;46.840;18.336;2024-01-11T01:33:46;-4.98;92.85
75010;DHT22;63564;46.840;18.336;2024-01-11T01:36:46;-4.88;92.61
75010;DHT22;63564;46.840;18.336;2024-01-11T01:39:46;-4.94;92.62
75010;DHT22;63564;46.840;18.336;2024-01-11T01:42:48;-4.87;93.02
75010;DHT22;63564;46.840;18.336;2024-01-11T01:45:48;-4.85;92.78
75010;DHT22;63564;46.840;18.336;2024-01-11T01:48:50;-4.85;92.93
75010;DHT22;63564;46.840;18.336;2024-01-11T01:51:52;-4.94;91.04
75010;DHT22;63564;46.840;18.336;2024-01-11T01:54:53;-5.22;91.72
75010;DHT22;63564;46.840;18.336;2024-01-11T01:57:54;-5.80;92.32
75010;DHT22;63564;46.840;18.336;2024-01-11T02:00:54;-5.97;93.29
75010;DHT22;63564;46.840;18.336;2024-01-11T02:03:55;-6.01;93.66
75010;DHT22;63564;46.840;18.336;2024-01-11T02:06:57;-5.70;94.85
75010;DHT22;63564;46.840;18.336;2024-01-11T02:09:58;-5.73;94.15
75010;DHT22;63564;46.840;18.336;2024-01-11T02:12:58;-5.88;93.94
75010;DHT22;63564;46.840;18.336;2024-01-11T02:15:59;-5.81;92.31
75010;DHT22;63564;46.840;18.336;2024-01-11T02:19:00;-6.15;91.59
75010;DHT22;63564;46.840;18.336;2024-01-11T02:22:04;-6.22;92.48
75010;DHT22;63564;46.840;18.336;2024-01-11T02:25:06;-6.52;92.70
75010;DHT22;63564;46.840;18.336;2024-01-11T02:28:06;-6.74;91.68
75010;DHT22;63564;46.840;18.336;2024-01-11T02:31:08;-6.70;91.29
75010;DHT22;63564;46.840;18.336;2024-01-11T02:34:09;-6.83;91.64
75010;DHT22;63564;46.840;18.336;2024-01-11T02:37:10;-7.05;91.50
75010;DHT22;63564;46.840;18.336;2024-01-11T02:40:12;-7.22;91.80
75010;DHT22;63564;46.840;18.336;2024-01-11T02:43:13;-7.33;92.19
75010;DHT22;63564;46.840;18.336;2024-01-11T02:46:15;-7.30;94.04
75010;DHT22;63564;46.840;18.336;2024-01-11T02:49:15;-7.25;93.77
75010;DHT22;63564;46.840;18.336;2024-01-11T02:52:16;-7.19;93.62
75010;DHT22;63564;46.840;18.336;2024-01-11T02:55:16;-7.25;93.40
75010;DHT22;63564;46.840;18.336;2024-01-11T02:58:17;-7.23;92.84
75010;DHT22;63564;46.840;18.336;2024-01-11T03:01:17;-7.35;93.99
75010;DHT22;63564;46.840;18.336;2024-01-11T03:04:18;-7.32;94.84
75010;DHT22;63564;46.840;18.336;2024-01-11T03:07:18;-7.28;94.85
75010;DHT22;63564;46.840;18.336;2024-01-11T03:10:18;-7.16;95.93
75010;DHT22;63564;46.840;18.336;2024-01-11T03:13:19;-6.97;96.81
75010;DHT22;63564;46.840;18.336;2024-01-11T03:16:19;-6.83;97.09
75010;DHT22;63564;46.840;18.336;2024-01-11T03:19:20;-6.77;96.47
75010;DHT22;63564;46.840;18.336;2024-01-11T03:22:20;-7.11;95.37
75010;DHT22;63564;46.840;18.336;2024-01-11T03:25:20;-7.25;95.33
75010;DHT22;63564;46.840;18.336;2024-01-11T03:28:21;-7.08;95.44
75010;DHT22;63564;46.840;18.336;2024-01-11T03:31:21;-7.08;96.18
75010;DHT22;63564;46.840;18.336;2024-01-11T03:34:21;-6.95;96.06
75010;DHT22;63564;46.840;18.336;2024-01-11T03:37:22;-6.84;95.94
75010;DHT22;63564;46.840;18.336;2024-01-11T03:40:22;-6.69;95.62
75010;DHT22;63564;46.840;18.336;2024-01-11T03:43:23;-6.88;92.49
75010;DHT22;63564;46.840;18.336;2024-01-11T03:46:23;-7.05;92.40
75010;DHT22;63564;46.840;18.336;2024-01-11T03:49:23;-7.38;93.62
75010;DHT22;63564;46.840;18.336;2024-01-11T03:52:24;-7.50;94.67
75010;DHT22;63564;46.840;18.336;2024-01-11T03:55:24;-7.33;95.51
75010;DHT22;63564;46.840;18.336;2024-01-11T03:58:24;-7.32;94.98
75010;DHT22;63564;46.840;18.336;2024-01-11T04:01:26;-7.30;94.44
75010;DHT22;63564;46.840;18.336;2024-01-11T04:04:27;-7.23;93.13
75010;DHT22;63564;46.840;18.336;2024-01-11T04:07:27;-7.46;93.89
75010;DHT22;63564;46.840;18.336;2024-01-11T04:10:27;-7.61;95.74
75010;DHT22;63564;46.840;18.336;2024-01-11T04:13:28;-7.67;95.95
75010;DHT22;63564;46.840;18.336;2024-01-11T04:16:28;-7.66;96.35
75010;DHT22;63564;46.840;18.336;2024-01-11T04:19:29;-7.43;95.91
75010;DHT22;63564;46.840;18.336;2024-01-11T04:22:29;-7.35;95.04
75010;DHT22;63564;46.840;18.336;2024-01-11T04:25:29;-7.15;94.06
75010;DHT22;63564;46.840;18.336;2024-01-11T04:28:30;-7.19;94.26
75010;DHT22;63564;46.840;18.336;2024-01-11T04:31:30;-7.15;93.73
75010;DHT22;63564;46.840;18.336;2024-01-11T04:34:31;-7.30;94.32
75010;DHT22;63564;46.840;18.336;2024-01-11T04:37:31;-7.18;94.50
75010;DHT22;63564;46.840;18.336;2024-01-11T04:40:32;-7.22;94.14
75010;DHT22;63564;46.840;18.336;2024-01-11T04:43:32;-7.49;94.22
75010;DHT22;63564;46.840;18.336;2024-01-11T04:46:32;-7.60;94.36
75010;DHT22;63564;46.840;18.336;2024-01-11T04:49:33;-7.74;94.48
75010;DHT22;63564;46.840;18.336;2024-01-11T04:52:33;-7.81;93.49
75010;DHT22;63564;46.840;18.336;2024-01-11T04:55:34;-7.78;94.57
75010;DHT22;63564;46.840;18.336;2024-01-11T04:58:35;-7.78;95.02
75010;DHT22;63564;46.840;18.336;2024-01-11T05:01:35;-7.69;95.11
75010;DHT22;63564;46.840;18.336;2024-01-11T05:04:36;-7.71;95.37
75010;DHT22;63564;46.840;18.336;2024-01-11T05:07:36;-7.78;93.61
75010;DHT22;63564;46.840;18.336;2024-01-11T05:10:37;-7.83;92.99
75010;DHT22;63564;46.840;18.336;2024-01-11T05:13:37;-8.02;93.69
75010;DHT22;63564;46.840;18.336;2024-01-11T05:16:37;-8.06;94.54
75010;DHT22;63564;46.840;18.336;2024-01-11T05:19:39;-7.97;95.04
75010;DHT22;63564;46.840;18.336;2024-01-11T05:22:39;-7.80;94.37
75010;DHT22;63564;46.840;18.336;2024-01-11T05:25:40;-7.76;94.33
75010;DHT22;63564;46.840;18.336;2024-01-11T05:28:40;-7.77;94.46
75010;DHT22;63564;46.840;18.336;2024-01-11T05:31:40;-7.81;94.52
75010;DHT22;63564;46.840;18.336;2024-01-11T05:34:41;-7.81;94.66
75010;DHT22;63564;46.840;18.336;2024-01-11T05:37:41;-7.78;95.15
75010;DHT22;63564;46.840;18.336;2024-01-11T05:40:42;-7.84;95.60
75010;DHT22;63564;46.840;18.336;2024-01-11T05:43:42;-7.64;96.00
75010;DHT22;63564;46.840;18.336;2024-01-11T05:46:43;-7.49;95.95
75010;DHT22;63564;46.840;18.336;2024-01-11T05:49:44;-7.36;95.84
75010;DHT22;63564;46.840;18.336;2024-01-11T05:52:45;-7.15;95.45
75010;DHT22;63564;46.840;18.336;2024-01-11T05:55:46;-7.35;94.06
75010;DHT22;63564;46.840;18.336;2024-01-11T05:58:46;-7.61;93.80
75010;DHT22;63564;46.840;18.336;2024-01-11T06:01:46;-7.80;94.27
75010;DHT22;63564;46.840;18.336;2024-01-11T06:04:47;-7.83;94.19
75010;DHT22;63564;46.840;18.336;2024-01-11T06:07:47;-7.66;94.54
75010;DHT22;63564;46.840;18.336;2024-01-11T06:10:47;-7.63;93.92
75010;DHT22;63564;46.840;18.336;2024-01-11T06:13:48;-7.73;94.01
75010;DHT22;63564;46.840;18.336;2024-01-11T06:16:48;-7.87;93.97
75010;DHT22;63564;46.840;18.336;2024-01-11T06:19:49;-7.94;93.58
75010;DHT22;63564;46.840;18.336;2024-01-11T06:22:50;-7.94;93.31
75010;DHT22;63564;46.840;18.336;2024-01-11T06:25:50;-8.01;93.73
75010;DHT22;63564;46.840;18.336;2024-01-11T06:28:50;-7.91;93.71
75010;DHT22;63564;46.840;18.336;2024-01-11T06:31:51;-7.74;94.21
75010;DHT22;63564;46.840;18.336;2024-01-11T06:34:51;-7.64;94.18
75010;DHT22;63564;46.840;18.336;2024-01-11T06:37:52;-7.56;94.50
75010;DHT22;63564;46.840;18.336;2024-01-11T06:40:52;-7.71;92.70
75010;DHT22;63564;46.840;18.336;2024-01-11T06:43:52;-7.69;91.89
75010;DHT22;63564;46.840;18.336;2024-01-11T06:46:53;-7.53;92.61
75010;DHT22;63564;46.840;18.336;2024-01-11T06:49:53;-7.66;92.86
75010;DHT22;63564;46.840;18.336;2024-01-11T06:52:53;-7.54;93.21
75010;DHT22;63564;46.840;18.336;2024-01-11T06:55:54;-7.50;92.75
75010;DHT22;63564;46.840;18.336;2024-01-11T06:58:55;-7.22;92.78
75010;DHT22;63564;46.840;18.336;2024-01-11T07:01:55;-7.04;93.22
75010;DHT22;63564;46.840;18.336;2024-01-11T07:04:55;-6.81;92.77
75010;DHT22;63564;46.840;18.336;2024-01-11T07:07:56;-7.19;90.44
75010;DHT22;63564;46.840;18.336;2024-01-11T07:10:57;-7.29;90.48
75010;DHT22;63564;46.840;18.336;2024-01-11T07:13:58;-7.29;90.55
75010;DHT22;63564;46.840;18.336;2024-01-11T07:16:58;-7.15;91.08
75010;DHT22;63564;46.840;18.336;2024-01-11T07:19:59;-7.38;91.45
75010;DHT22;63564;46.840;18.336;2024-01-11T07:22:59;-7.22;91.65
75010;DHT22;63564;46.840;18.336;2024-01-11T07:26:00;-7.11;93.89
75010;DHT22;63564;46.840;18.336;2024-01-11T07:29:00;-6.64;92.95
75010;DHT22;63564;46.840;18.336;2024-01-11T07:32:01;-6.42;91.66
75010;DHT22;63564;46.840;18.336;2024-01-11T07:35:04;-6.08;92.89
75010;DHT22;63564;46.840;18.336;2024-01-11T07:38:06;-6.14;91.07
75010;DHT22;63564;46.840;18.336;2024-01-11T07:41:07;-5.67;91.60
75010;DHT22;63564;46.840;18.336;2024-01-11T07:44:08;-5.60;93.71
75010;DHT22;63564;46.840;18.336;2024-01-11T07:47:08;-5.42;93.21
75010;DHT22;63564;46.840;18.336;2024-01-11T07:50:09;-5.36;91.20
75010;DHT22;63564;46.840;18.336;2024-01-11T07:53:12;-5.19;93.16
75010;DHT22;63564;46.840;18.336;2024-01-11T07:56:13;-4.94;91.98
75010;DHT22;63564;46.840;18.336;2024-01-11T07:59:14;-4.66;86.98
75010;DHT22;63564;46.840;18.336;2024-01-11T08:02:14;-4.49;87.17
75010;DHT22;63564;46.840;18.336;2024-01-11T08:05:15;-4.46;91.15
75010;DHT22;63564;46.840;18.336;2024-01-11T08:08:16;-4.36;86.79
75010;DHT22;63564;46.840;18.336;2024-01-11T08:11:17;-4.32;86.77
75010;DHT22;63564;46.840;18.336;2024-01-11T08:14:18;-4.30;86.43
75010;DHT22;63564;46.840;18.336;2024-01-11T08:17:19;-4.19;85.05
75010;DHT22;63564;46.840;18.336;2024-01-11T08:20:19;-4.06;84.84
75010;DHT22;63564;46.840;18.336;2024-01-11T08:23:20;-4.08;85.65
75010;DHT22;63564;46.840;18.336;2024-01-11T08:26:20;-3.94;85.21
75010;DHT22;63564;46.840;18.336;2024-01-11T08:29:22;-3.78;85.78
75010;DHT22;63564;46.840;18.336;2024-01-11T08:32:22;-3.70;85.11
75010;DHT22;63564;46.840;18.336;2024-01-11T08:35:22;-3.63;85.05
75010;DHT22;63564;46.840;18.336;2024-01-11T08:38:23;-3.43;85.05
75010;DHT22;63564;46.840;18.336;2024-01-11T08:41:24;-3.18;86.47
75010;DHT22;63564;46.840;18.336;2024-01-11T08:44:24;-2.95;85.55
75010;DHT22;63564;46.840;18.336;2024-01-11T08:47:25;-2.95;85.14
75010;DHT22;63564;46.840;18.336;2024-01-11T08:50:25;-2.64;84.97
75010;DHT22;63564;46.840;18.336;2024-01-11T08:53:26;-2.52;83.01
75010;DHT22;63564;46.840;18.336;2024-01-11T08:59:45;-2.42;83.77
75010;DHT22;63564;46.840;18.336;2024-01-11T09:02:45;-2.49;83.67
75010;DHT22;63564;46.840;18.336;2024-01-11T09:05:46;-2.29;83.73
75010;DHT22;63564;46.840;18.336;2024-01-11T09:08:50;-2.02;82.78
75010;DHT22;63564;46.840;18.336;2024-01-11T09:11:51;-1.81;81.60
75010;DHT22;63564;46.840;18.336;2024-01-11T09:14:52;-1.91;82.21
75010;DHT22;63564;46.840;18.336;2024-01-11T09:17:52;-1.85;81.88
75010;DHT22;63564;46.840;18.336;2024-01-11T09:20:52;-1.81;82.57
75010;DHT22;63564;46.840;18.336;2024-01-11T09:23:53;-1.88;83.24
75010;DHT22;63564;46.840;18.336;2024-01-11T09:26:53;-1.60;81.17
75010;DHT22;63564;46.840;18.336;2024-01-11T09:29:53;-1.56;81.34
75010;DHT22;63564;46.840;18.336;2024-01-11T09:32:55;-1.25;81.93
75010;DHT22;63564;46.840;18.336;2024-01-11T09:35:55;-1.25;81.80
75010;DHT22;63564;46.840;18.336;2024-01-11T09:38:56;-1.05;80.78
75010;DHT22;63564;46.840;18.336;2024-01-11T09:42:06;-0.66;84.03
75010;DHT22;63564;46.840;18.336;2024-01-11T09:45:09;-0.16;80.02
75010;DHT22;63564;46.840;18.336;2024-01-11T09:48:12;0.33;78.06
75010;DHT22;63564;46.840;18.336;2024-01-11T09:51:13;0.95;74.47
75010;DHT22;63564;46.840;18.336;2024-01-11T09:54:14;0.85;75.44
75010;DHT22;63564;46.840;18.336;2024-01-11T09:57:16;1.22;74.63
75010;DHT22;63564;46.840;18.336;2024-01-11T10:00:22;1.53;72.89
75010;DHT22;63564;46.840;18.336;2024-01-11T10:03:24;1.78;72.13
75010;DHT22;63564;46.840;18.336;2024-01-11T10:06:25;2.91;69.53
75010;DHT22;63564;46.840;18.336;2024-01-11T10:09:26;2.87;70.18
75010;DHT22;63564;46.840;18.336;2024-01-11T10:12:27;2.90;67.67
75010;DHT22;63564;46.840;18.336;2024-01-11T10:15:28;2.66;70.72
75010;DHT22;63564;46.840;18.336;2024-01-11T10:18:28;2.14;68.41
75010;DHT22;63564;46.840;18.336;2024-01-11T10:21:29;1.82;68.87
75010;DHT22;63564;46.840;18.336;2024-01-11T10:24:30;1.93;67.87
75010;DHT22;63564;46.840;18.336;2024-01-11T10:27:31;1.80;68.07
75010;DHT22;63564;46.840;18.336;2024-01-11T10:30:31;2.22;67.30
75010;DHT22;63564;46.840;18.336;2024-01-11T10:33:33;2.24;67.63
75010;DHT22;63564;46.840;18.336;2024-01-11T10:36:34;2.25;70.64
75010;DHT22;63564;46.840;18.336;2024-01-11T10:39:34;1.61;69.18
75010;DHT22;63564;46.840;18.336;2024-01-11T10:42:36;1.49;69.94
75010;DHT22;63564;46.840;18.336;2024-01-11T10:45:39;1.30;72.30
75010;DHT22;63564;46.840;18.336;2024-01-11T10:48:43;1.99;69.67
75010;DHT22;63564;46.840;18.336;2024-01-11T10:52:00;1.99;69.67
75010;DHT22;63564;46.840;18.336;2024-01-11T10:55:02;1.88;70.43
75010;DHT22;63564;46.840;18.336;2024-01-11T10:58:03;2.29;70.17
75010;DHT22;63564;46.840;18.336;2024-01-11T11:01:05;2.53;69.03
75010;DHT22;63564;46.840;18.336;2024-01-11T11:04:15;2.11;70.95
75010;DHT22;63564;46.840;18.336;2024-01-11T11:07:29;2.02;71.10
75010;DHT22;63564;46.840;18.336;2024-01-11T11:10:33;2.60;69.95
75010;DHT22;63564;46.840;18.336;2024-01-11T11:13:34;2.84;69.97
75010;DHT22;63564;46.840;18.336;2024-01-11T11:16:35;2.68;70.89
75010;DHT22;63564;46.840;18.336;2024-01-11T11:19:35;2.61;71.56
75010;DHT22;63564;46.840;18.336;2024-01-11T11:22:36;3.32;68.56
75010;DHT22;63564;46.840;18.336;2024-01-11T11:25:37;3.16;68.02
75010;DHT22;63564;46.840;18.336;2024-01-11T11:28:38;3.29;67.75
75010;DHT22;63564;46.840;18.336;2024-01-11T11:31:45;3.21;66.85
75010;DHT22;63564;46.840;18.336;2024-01-11T11:34:53;2.68;68.00
75010;DHT22;63564;46.840;18.336;2024-01-11T11:37:57;3.04;67.84
75010;DHT22;63564;46.840;18.336;2024-01-11T11:40:59;3.11;68.33
75010;DHT22;63564;46.840;18.336;2024-01-11T11:44:04;3.38;67.60
75010;DHT22;63564;46.840;18.336;2024-01-11T11:47:19;3.18;67.12
75010;DHT22;63564;46.840;18.336;2024-01-11T11:50:23;3.42;67.85
75010;DHT22;63564;46.840;18.336;2024-01-11T11:53:32;3.83;65.66
75010;DHT22;63564;46.840;18.336;2024-01-11T11:56:33;3.70;65.69
75010;DHT22;63564;46.840;18.336;2024-01-11T11:59:34;3.63;65.87
75010;DHT22;63564;46.840;18.336;2024-01-11T12:02:36;3.38;65.74
75010;DHT22;63564;46.840;18.336;2024-01-11T12:05:38;3.29;65.88
75010;DHT22;63564;46.840;18.336;2024-01-11T12:08:41;3.22;66.45
75010;DHT22;63564;46.840;18.336;2024-01-11T12:11:42;3.11;65.91
75010;DHT22;63564;46.840;18.336;2024-01-11T12:14:44;3.35;66.81
75010;DHT22;63564;46.840;18.336;2024-01-11T12:17:46;3.76;64.83
75010;DHT22;63564;46.840;18.336;2024-01-11T12:20:46;3.69;65.07
75010;DHT22;63564;46.840;18.336;2024-01-11T12:23:47;3.52;64.57
75010;DHT22;63564;46.840;18.336;2024-01-11T12:26:49;3.35;66.18
75010;DHT22;63564;46.840;18.336;2024-01-11T12:29:50;3.19;67.46
75010;DHT22;63564;46.840;18.336;2024-01-11T12:32:52;3.21;65.39
75010;DHT22;63564;46.840;18.336;2024-01-11T12:35:53;3.39;69.53
75010;DHT22;63564;46.840;18.336;2024-01-11T12:38:53;3.39;66.10
75010;DHT22;63564;46.840;18.336;2024-01-11T12:41:54;3.05;66.93
75010;DHT22;63564;46.840;18.336;2024-01-11T12:44:57;3.16;67.88
75010;DHT22;63564;46.840;18.336;2024-01-11T12:48:01;2.98;67.55
75010;DHT22;63564;46.840;18.336;2024-01-11T12:51:01;2.85;67.19
75010;DHT22;63564;46.840;18.336;2024-01-11T12:54:03;2.84;67.01
75010;DHT22;63564;46.840;18.336;2024-01-11T12:57:04;2.72;67.83
75010;DHT22;63564;46.840;18.336;2024-01-11T13:00:11;3.09;68.61
75010;DHT22;63564;46.840;18.336;2024-01-11T13:03:13;3.21;69.85
75010;DHT22;63564;46.840;18.336;2024-01-11T13:06:15;3.18;66.07
75010;DHT22;63564;46.840;18.336;2024-01-11T13:09:15;3.50;66.88
75010;DHT22;63564;46.840;18.336;2024-01-11T13:12:16;3.12;67.48
75010;DHT22;63564;46.840;18.336;2024-01-11T13:15:17;3.15;66.86
75010;DHT22;63564;46.840;18.336;2024-01-11T13:18:17;3.11;68.31
75010;DHT22;63564;46.840;18.336;2024-01-11T13:21:18;3.19;67.17
75010;DHT22;63564;46.840;18.336;2024-01-11T13:24:18;3.22;66.97
75010;DHT22;63564;46.840;18.336;2024-01-11T13:27:18;3.07;66.77
75010;DHT22;63564;46.840;18.336;2024-01-11T13:30:19;3.01;68.13
75010;DHT22;63564;46.840;18.336;2024-01-11T13:33:19;3.02;65.76
75010;DHT22;63564;46.840;18.336;2024-01-11T13:36:23;3.11;67.66
75010;DHT22;63564;46.840;18.336;2024-01-11T13:39:23;3.49;65.88
75010;DHT22;63564;46.840;18.336;2024-01-11T13:42:25;3.69;64.62
75010;DHT22;63564;46.840;18.336;2024-01-11T13:45:26;3.07;65.70
75010;DHT22;63564;46.840;18.336;2024-01-11T13:48:26;2.87;65.87
75010;DHT22;63564;46.840;18.336;2024-01-11T13:51:26;3.01;66.07
75010;DHT22;63564;46.840;18.336;2024-01-11T13:54:27;3.44;65.27
75010;DHT22;63564;46.840;18.336;2024-01-11T13:57:27;3.48;64.29
75010;DHT22;63564;46.840;18.336;2024-01-11T14:00:28;3.38;63.23
75010;DHT22;63564;46.840;18.336;2024-01-11T14:03:29;3.49;62.24
75010;DHT22;63564;46.840;18.336;2024-01-11T14:06:29;3.48;61.30
75010;DHT22;63564;46.840;18.336;2024-01-11T14:09:30;3.53;61.10
75010;DHT22;63564;46.840;18.336;2024-01-11T14:12:30;3.91;60.96
75010;DHT22;63564;46.840;18.336;2024-01-11T14:15:30;3.83;58.68
75010;DHT22;63564;46.840;18.336;2024-01-11T14:18:31;3.88;58.53
75010;DHT22;63564;46.840;18.336;2024-01-11T14:21:31;3.74;58.47
75010;DHT22;63564;46.840;18.336;2024-01-11T14:24:32;3.46;58.56
75010;DHT22;63564;46.840;18.336;2024-01-11T14:27:33;3.50;60.11
75010;DHT22;63564;46.840;18.336;2024-01-11T14:30:34;3.08;62.84
75010;DHT22;63564;46.840;18.336;2024-01-11T14:33:35;2.54;64.41
75010;DHT22;63564;46.840;18.336;2024-01-11T14:36:37;2.29;64.92
75010;DHT22;63564;46.840;18.336;2024-01-11T14:39:37;2.12;65.89
75010;DHT22;63564;46.840;18.336;2024-01-11T14:42:38;2.12;64.95
75010;DHT22;63564;46.840;18.336;2024-01-11T14:45:38;1.81;66.23
75010;DHT22;63564;46.840;18.336;2024-01-11T14:48:39;1.94;65.06
75010;DHT22;63564;46.840;18.336;2024-01-11T14:51:39;1.81;65.65
75010;DHT22;63564;46.840;18.336;2024-01-11T14:54:40;1.71;66.02
75010;DHT22;63564;46.840;18.336;2024-01-11T14:57:40;1.64;67.20
75010;DHT22;63564;46.840;18.336;2024-01-11T15:00:41;1.50;67.57
75010;DHT22;63564;46.840;18.336;2024-01-11T15:03:41;1.38;67.80
75010;DHT22;63564;46.840;18.336;2024-01-11T15:06:43;1.18;68.28
75010;DHT22;63564;46.840;18.336;2024-01-11T15:09:44;0.96;69.34
75010;DHT22;63564;46.840;18.336;2024-01-11T15:12:45;0.77;70.29
75010;DHT22;63564;46.840;18.336;2024-01-11T15:15:45;0.71;70.24
75010;DHT22;63564;46.840;18.336;2024-01-11T15:18:45;0.63;70.43
75010;DHT22;63564;46.840;18.336;2024-01-11T15:21:46;0.50;71.41
75010;DHT22;63564;46.840;18.336;2024-01-11T15:24:47;0.40;72.09
75010;DHT22;63564;46.840;18.336;2024-01-11T15:27:53;0.29;73.03
75010;DHT22;63564;46.840;18.336;2024-01-11T15:30:53;0.15;73.86
75010;DHT22;63564;46.840;18.336;2024-01-11T15:33:54;0.08;74.12
75010;DHT22;63564;46.840;18.336;2024-01-11T15:36:55;0.05;74.70
75010;DHT22;63564;46.840;18.336;2024-01-11T15:39:56;-0.02;75.23
75010;DHT22;63564;46.840;18.336;2024-01-11T15:42:56;-0.11;75.52
75010;DHT22;63564;46.840;18.336;2024-01-11T15:45:57;-0.08;75.63
75010;DHT22;63564;46.840;18.336;2024-01-11T15:48:58;-0.15;75.83
75010;DHT22;63564;46.840;18.336;2024-01-11T15:51:58;-0.19;75.76
75010;DHT22;63564;46.840;18.336;2024-01-11T15:54:59;-0.25;76.60
75010;DHT22;63564;46.840;18.336;2024-01-11T15:58:00;-0.22;76.66
75010;DHT22;63564;46.840;18.336;2024-01-11T16:01:01;-0.26;77.25
75010;DHT22;63564;46.840;18.336;2024-01-11T16:04:03;-0.29;76.67
75010;DHT22;63564;46.840;18.336;2024-01-11T16:07:04;-0.32;76.50
75010;DHT22;63564;46.840;18.336;2024-01-11T16:10:05;-0.33;76.36
75010;DHT22;63564;46.840;18.336;2024-01-11T16:13:05;-0.37;76.59
75010;DHT22;63564;46.840;18.336;2024-01-11T16:16:06;-0.39;76.34
75010;DHT22;63564;46.840;18.336;2024-01-11T16:19:06;-0.32;75.91
75010;DHT22;63564;46.840;18.336;2024-01-11T16:22:07;-0.37;76.32
75010;DHT22;63564;46.840;18.336;2024-01-11T16:25:07;-0.36;76.47
75010;DHT22;63564;46.840;18.336;2024-01-11T16:28:09;-0.52;76.78
75010;DHT22;63564;46.840;18.336;2024-01-11T16:31:10;-0.34;76.58
75010;DHT22;63564;46.840;18.336;2024-01-11T16:34:10;-0.37;77.02
75010;DHT22;63564;46.840;18.336;2024-01-11T16:37:12;-0.32;77.07
75010;DHT22;63564;46.840;18.336;2024-01-11T16:40:14;-0.43;77.67
75010;DHT22;63564;46.840;18.336;2024-01-11T16:43:14;-0.41;77.92
75010;DHT22;63564;46.840;18.336;2024-01-11T16:46:18;-0.43;78.46
75010;DHT22;63564;46.840;18.336;2024-01-11T16:49:19;-0.44;78.57
75010;DHT22;63564;46.840;18.336;2024-01-11T16:52:20;-0.44;78.49
75010;DHT22;63564;46.840;18.336;2024-01-11T16:55:20;-0.46;78.65
75010;DHT22;63564;46.840;18.336;2024-01-11T16:58:21;-0.50;78.73
75010;DHT22;63564;46.840;18.336;2024-01-11T17:01:21;-0.57;78.85
75010;DHT22;63564;46.840;18.336;2024-01-11T17:04:21;-0.63;78.63
75010;DHT22;63564;46.840;18.336;2024-01-11T17:07:22;-0.66;78.72
75010;DHT22;63564;46.840;18.336;2024-01-11T17:10:22;-0.77;79.57
75010;DHT22;63564;46.840;18.336;2024-01-11T17:13:23;-0.76;79.42
75010;DHT22;63564;46.840;18.336;2024-01-11T17:16:23;-0.83;79.44
75010;DHT22;63564;46.840;18.336;2024-01-11T17:19:23;-0.81;79.82
75010;DHT22;63564;46.840;18.336;2024-01-11T17:22:24;-0.83;80.28
75010;DHT22;63564;46.840;18.336;2024-01-11T17:25:24;-0.88;80.70
75010;DHT22;63564;46.840;18.336;2024-01-11T17:28:25;-0.84;80.91
75010;DHT22;63564;46.840;18.336;2024-01-11T17:31:25;-0.84;81.22
75010;DHT22;63564;46.840;18.336;2024-01-11T17:34:26;-0.89;81.82
75010;DHT22;63564;46.840;18.336;2024-01-11T17:37:26;-0.87;81.86
75010;DHT22;63564;46.840;18.336;2024-01-11T17:40:27;-0.84;81.83
75010;DHT22;63564;46.840;18.336;2024-01-11T17:43:30;-0.81;81.85
75010;DHT22;63564;46.840;18.336;2024-01-11T17:46:30;-0.81;81.88
75010;DHT22;63564;46.840;18.336;2024-01-11T17:49:33;-0.83;82.04
75010;DHT22;63564;46.840;18.336;2024-01-11T17:52:33;-0.83;81.69
75010;DHT22;63564;46.840;18.336;2024-01-11T17:55:34;-0.89;82.16
75010;DHT22;63564;46.840;18.336;2024-01-11T17:58:34;-0.92;82.34
75010;DHT22;63564;46.840;18.336;2024-01-11T18:01:34;-1.01;82.95
75010;DHT22;63564;46.840;18.336;2024-01-11T18:04:35;-1.01;82.95
75010;DHT22;63564;46.840;18.336;2024-01-11T18:07:35;-1.06;82.99
75010;DHT22;63564;46.840;18.336;2024-01-11T18:10:36;-1.12;83.47
75010;DHT22;63564;46.840;18.336;2024-01-11T18:13:39;-1.20;82.57
75010;DHT22;63564;46.840;18.336;2024-01-11T18:16:39;-1.24;82.33
75010;DHT22;63564;46.840;18.336;2024-01-11T18:19:40;-1.25;82.14
75010;DHT22;63564;46.840;18.336;2024-01-11T18:22:40;-1.28;82.37
75010;DHT22;63564;46.840;18.336;2024-01-11T18:25:41;-1.31;82.52
75010;DHT22;63564;46.840;18.336;2024-01-11T18:28:42;-1.31;82.31
75010;DHT22;63564;46.840;18.336;2024-01-11T18:31:43;-1.29;82.56
75010;DHT22;63564;46.840;18.336;2024-01-11T18:34:43;-1.39;82.87
75010;DHT22;63564;46.840;18.336;2024-01-11T18:37:43;-1.42;83.09
75010;DHT22;63564;46.840;18.336;2024-01-11T18:40:44;-1.40;82.66
75010;DHT22;63564;46.840;18.336;2024-01-11T18:43:44;-1.45;82.89
75010;DHT22;63564;46.840;18.336;2024-01-11T18:46:45;-1.45;82.87
75010;DHT22;63564;46.840;18.336;2024-01-11T18:49:45;-1.46;82.75
75010;DHT22;63564;46.840;18.336;2024-01-11T18:52:46;-1.45;82.24